createdAt,value
2022-09-03T00:13:51.384Z,0.70
2022-09-03T00:28:51.217Z,0.60
2022-09-03T00:43:51.102Z,0.90
2022-09-03T00:58:50.946Z,0.70
2022-09-03T01:31:44.061Z,1.00
2022-09-03T02:23:38.077Z,1.20
2022-09-03T03:24:42.438Z,0.70
2022-09-03T03:39:42.362Z,1.10
2022-09-03T03:54:42.140Z,1.00
2022-09-03T04:09:41.955Z,1.10
2022-09-03T05:21:51.219Z,1.30
2022-09-03T05:36:51.076Z,0.70
2022-09-03T05:51:50.910Z,1.00
2022-09-03T06:06:50.765Z,1.10
2022-09-03T06:21:50.603Z,0.80
2022-09-03T06:36:50.453Z,0.70
2022-09-03T06:51:50.287Z,1.00
2022-09-03T07:06:50.126Z,1.20
2022-09-03T07:21:50.885Z,0.90
2022-09-03T07:36:49.803Z,1.00
2022-09-03T07:51:49.648Z,1.10
2022-09-03T08:06:49.493Z,0.80
2022-09-03T08:21:49.327Z,0.80
2022-09-03T08:36:49.236Z,1.10
2022-09-03T08:51:49.012Z,0.80
2022-09-03T09:06:48.857Z,0.80
2022-09-03T09:21:48.691Z,1.10
2022-09-03T09:36:48.539Z,0.50
2022-09-03T09:51:48.381Z,0.60
2022-09-03T10:06:48.217Z,0.50
2022-09-03T10:21:48.062Z,0.50
2022-09-03T10:36:47.908Z,0.60
2022-09-03T10:51:49.702Z,0.50
2022-09-03T11:06:47.620Z,0.60
2022-09-03T11:21:47.436Z,0.70
2022-09-03T11:36:48.086Z,0.40
2022-09-03T11:51:47.115Z,0.50
2022-09-03T12:06:46.960Z,0.50
2022-09-03T12:21:46.805Z,0.40
2022-09-03T12:36:46.637Z,0.40
2022-09-03T12:51:49.930Z,0.40
2022-09-03T13:06:46.325Z,0.40
2022-09-03T13:21:46.173Z,0.60
2022-09-03T13:36:46.015Z,0.40
2022-09-03T13:51:46.853Z,0.50
2022-09-03T14:06:45.696Z,0.40
2022-09-03T14:21:45.544Z,0.60
2022-09-03T14:36:45.358Z,0.60
2022-09-03T14:51:45.213Z,0.70
2022-09-03T15:06:45.053Z,0.40
2022-09-03T15:21:44.900Z,0.70
2022-09-03T15:36:44.731Z,0.60
2022-09-03T15:51:44.568Z,0.50
2022-09-03T16:06:44.409Z,0.50
2022-09-03T16:21:44.260Z,0.40
2022-09-03T16:36:44.096Z,0.50
2022-09-03T16:51:44.052Z,0.40
2022-09-03T17:06:43.778Z,0.80
2022-09-03T17:21:43.624Z,0.60
2022-09-03T17:36:43.458Z,0.80
2022-09-03T17:51:43.293Z,0.80
2022-09-03T18:06:43.138Z,1.50
2022-09-03T18:21:43.974Z,1.50
2022-09-03T18:36:42.878Z,2.00
2022-09-03T18:51:42.741Z,1.00
2022-09-03T19:06:42.558Z,0.80
2022-09-03T19:21:42.404Z,0.60
2022-09-03T19:36:42.239Z,0.40
2022-09-03T19:51:42.086Z,0.40
2022-09-03T20:06:41.928Z,0.50
2022-09-03T20:21:41.774Z,0.70
2022-09-03T20:36:41.611Z,0.50
2022-09-03T20:51:41.455Z,0.40
2022-09-03T21:06:41.293Z,0.50
2022-09-03T21:21:41.133Z,0.50
2022-09-03T21:36:40.976Z,0.40
2022-09-03T21:51:40.813Z,0.80
2022-09-03T22:06:40.658Z,0.30
2022-09-03T22:21:40.505Z,0.40
2022-09-03T22:36:40.337Z,0.30
2022-09-03T22:51:40.237Z,0.50
2022-09-03T23:06:40.043Z,0.50
2022-09-03T23:33:49.826Z,0.50
2022-09-03T23:48:49.662Z,0.40
